createdAt,value
2019-02-05T00:01:41.724Z,100621.19
2019-02-05T00:04:12.199Z,100621.57
2019-02-05T00:06:42.631Z,100627.52
2019-02-05T00:09:14.074Z,100626.11
2019-02-05T00:11:44.529Z,100627.91
2019-02-05T00:14:15.352Z,100626.11
2019-02-05T00:16:46.496Z,100630.36
2019-02-05T00:19:16.931Z,100635.92
2019-02-05T00:21:47.385Z,100635.92
2019-02-05T00:24:18.197Z,100633.67
2019-02-05T00:26:48.933Z,100629.13
2019-02-05T00:29:20.158Z,100626.30
2019-02-05T00:31:50.761Z,100625.45
2019-02-05T00:34:21.194Z,100624.04
2019-02-05T00:36:51.647Z,100629.23
2019-02-05T00:39:22.077Z,100624.71
2019-02-05T00:41:52.593Z,100632.92
2019-02-05T00:44:23.031Z,100632.90
2019-02-05T00:46:53.461Z,100634.80
2019-02-05T00:49:23.933Z,100633.67
2019-02-05T00:51:55.260Z,100630.83
2019-02-05T00:54:25.737Z,100627.16
2019-02-05T00:56:56.348Z,100621.97
2019-02-05T00:59:27.078Z,100628.19
2019-02-05T01:01:57.530Z,100627.70
2019-02-05T01:04:27.962Z,100629.70
2019-02-05T01:06:58.534Z,100626.97
2019-02-05T01:09:29.474Z,100627.35
2019-02-05T01:11:59.905Z,100630.62
2019-02-05T01:14:30.360Z,100623.10
2019-02-05T01:17:00.793Z,100635.08
2019-02-05T01:19:31.280Z,100635.94
2019-02-05T01:22:02.690Z,100621.97
2019-02-05T01:24:33.128Z,100622.83
2019-02-05T01:27:03.853Z,100623.55
2019-02-05T01:29:34.551Z,100621.84
2019-02-05T01:32:05.005Z,100617.63
2019-02-05T01:34:35.456Z,100628.09
2019-02-05T01:37:05.941Z,100630.06
2019-02-05T01:39:36.366Z,100635.83
2019-02-05T01:42:06.792Z,100632.16
2019-02-05T01:44:37.263Z,100628.73
2019-02-05T01:47:07.697Z,100627.25
2019-02-05T01:49:38.560Z,100629.05
2019-02-05T01:52:09.872Z,100634.51
2019-02-05T01:54:40.950Z,100630.47
2019-02-05T01:57:12.080Z,100630.82
2019-02-05T01:59:42.516Z,100641.59
2019-02-05T02:02:13.918Z,100627.44
2019-02-05T02:04:44.385Z,100629.05
2019-02-05T02:07:14.862Z,100628.58
2019-02-05T02:09:45.293Z,100620.73
2019-02-05T02:12:16.193Z,100627.91
2019-02-05T02:14:46.694Z,100627.36
2019-02-05T02:17:17.127Z,100632.26
2019-02-05T02:19:47.609Z,100629.91
2019-02-05T02:22:18.429Z,100630.66
2019-02-05T02:24:49.162Z,100630.17
2019-02-05T02:27:20.099Z,100619.88
2019-02-05T02:29:51.000Z,100629.78
2019-02-05T02:32:21.473Z,100617.24
2019-02-05T02:34:51.907Z,100622.72
2019-02-05T02:37:22.639Z,100629.72
2019-02-05T02:39:53.105Z,100630.92
2019-02-05T02:42:23.540Z,100634.70
2019-02-05T02:44:54.027Z,100636.86
2019-02-05T02:47:27.707Z,100637.61
2019-02-05T02:49:56.904Z,100638.94
2019-02-05T02:52:27.370Z,100643.64
2019-02-05T02:54:57.803Z,100633.07
2019-02-05T02:57:28.457Z,100638.74
2019-02-05T02:59:58.897Z,100642.41
2019-02-05T03:02:29.332Z,100632.81
2019-02-05T03:04:59.968Z,100644.12
2019-02-05T03:07:30.410Z,100641.48
2019-02-05T03:10:01.295Z,100647.44
2019-02-05T03:12:32.711Z,100650.72
2019-02-05T03:15:03.168Z,100658.75
2019-02-05T03:17:34.642Z,100658.06
2019-02-05T03:20:06.051Z,100656.94
2019-02-05T03:22:36.573Z,100664.00
2019-02-05T03:25:08.473Z,100664.48
2019-02-05T03:27:38.912Z,100670.98
2019-02-05T03:30:12.734Z,100669.86
2019-02-05T03:32:43.172Z,100667.95
2019-02-05T03:35:13.990Z,100671.44
2019-02-05T03:37:44.624Z,100666.89
2019-02-05T03:40:53.168Z,100667.72
2019-02-05T03:43:24.458Z,100670.45
2019-02-05T03:45:56.475Z,100674.70
2019-02-05T03:48:28.189Z,100675.16
2019-02-05T03:51:24.049Z,100683.37
2019-02-05T03:54:05.691Z,100677.05
2019-02-05T03:57:00.448Z,100669.12
2019-02-05T04:00:06.695Z,100664.88
2019-02-05T04:03:06.933Z,100653.54
2019-02-05T04:06:20.976Z,100658.48
2019-02-05T04:09:12.361Z,100658.92
2019-02-05T04:12:21.527Z,100660.73
2019-02-05T04:15:21.622Z,100662.15
2019-02-05T04:18:41.846Z,100657.45
2019-02-05T04:21:31.908Z,100673.28
2019-02-05T04:24:28.374Z,100662.25
2019-02-05T04:27:24.103Z,100663.17
2019-02-05T04:30:50.737Z,100664.34
2019-02-05T04:33:43.348Z,100673.15
2019-02-05T04:36:53.988Z,100667.72
2019-02-05T04:40:14.717Z,100668.65
2019-02-05T04:43:14.695Z,100670.45
2019-02-05T04:46:35.806Z,100659.95
2019-02-05T04:49:39.433Z,100661.66
2019-02-05T04:52:55.061Z,100655.06
2019-02-05T04:55:59.960Z,100656.28
2019-02-05T04:58:56.029Z,100665.17
2019-02-05T05:01:52.716Z,100653.20
2019-02-05T05:05:01.201Z,100657.89
2019-02-05T05:08:11.153Z,100653.84
2019-02-05T05:10:41.585Z,100655.09
2019-02-05T05:13:12.053Z,100659.75
2019-02-05T05:15:42.866Z,100663.91
2019-02-05T05:18:15.556Z,100662.78
2019-02-05T05:20:46.268Z,100658.52
2019-02-05T05:23:16.838Z,100664.64
2019-02-05T05:25:47.694Z,100658.42
2019-02-05T05:28:18.231Z,100671.71
2019-02-05T05:30:49.084Z,100658.14
2019-02-05T05:33:19.521Z,100666.30
2019-02-05T05:35:50.013Z,100670.14
2019-02-05T05:38:21.173Z,100667.61
2019-02-05T05:40:51.604Z,100662.53
2019-02-05T05:43:22.553Z,100661.16
2019-02-05T05:45:53.436Z,100670.75
2019-02-05T05:48:24.501Z,100677.81
2019-02-05T05:50:54.938Z,100676.71
2019-02-05T05:53:25.430Z,100684.63
2019-02-05T05:55:55.907Z,100689.52
2019-02-05T05:58:26.349Z,100694.05
2019-02-05T06:00:57.536Z,100697.53
2019-02-05T06:03:28.303Z,100693.85
2019-02-05T06:05:59.115Z,100693.17
2019-02-05T06:08:29.588Z,100695.63
2019-02-05T06:11:00.286Z,100696.01
2019-02-05T06:13:31.160Z,100700.17
2019-02-05T06:16:01.952Z,100696.41
2019-02-05T06:18:33.038Z,100710.09
2019-02-05T06:21:04.389Z,100706.02
2019-02-05T06:23:34.855Z,100707.59
2019-02-05T06:26:05.403Z,100715.19
2019-02-05T06:28:35.910Z,100717.33
2019-02-05T06:31:06.369Z,100716.88
2019-02-05T06:33:37.238Z,100722.88
2019-02-05T06:36:07.710Z,100734.55
2019-02-05T06:38:38.614Z,100734.91
2019-02-05T06:41:09.235Z,100732.77
2019-02-05T06:43:40.386Z,100732.44
2019-02-05T06:46:10.835Z,100732.01
2019-02-05T06:48:41.325Z,100729.45
2019-02-05T06:51:11.773Z,100738.61
2019-02-05T06:53:42.791Z,100747.84
2019-02-05T06:56:13.278Z,100752.49
2019-02-05T06:58:46.374Z,100760.75
2019-02-05T07:01:16.075Z,100769.45
2019-02-05T07:03:46.535Z,100766.22
2019-02-05T07:06:17.027Z,100770.47
2019-02-05T07:08:47.842Z,100784.51
2019-02-05T07:11:18.907Z,100781.57
2019-02-05T07:13:49.723Z,100783.67
2019-02-05T07:16:20.176Z,100785.92
2019-02-05T07:18:50.621Z,100796.57
2019-02-05T07:21:21.096Z,100797.91
2019-02-05T07:23:51.583Z,100800.85
2019-02-05T07:26:22.795Z,100805.74
2019-02-05T07:28:58.438Z,100809.08
2019-02-05T07:31:25.909Z,100805.84
2019-02-05T07:33:56.359Z,100808.86
2019-02-05T07:36:26.839Z,100805.30
2019-02-05T07:38:58.014Z,100809.70
2019-02-05T07:41:28.895Z,100816.21
2019-02-05T07:43:59.344Z,100814.23
2019-02-05T07:46:29.790Z,100820.02
2019-02-05T07:49:00.288Z,100821.64
2019-02-05T07:51:30.735Z,100829.77
2019-02-05T07:54:01.180Z,100833.34
2019-02-05T07:56:31.669Z,100833.94
2019-02-05T07:59:09.846Z,100837.58
2019-02-05T08:01:34.778Z,100835.59
2019-02-05T08:04:05.534Z,100835.89
2019-02-05T08:06:36.426Z,100832.66
2019-02-05T08:09:10.124Z,100842.10
2019-02-05T08:11:41.492Z,100846.06
2019-02-05T08:14:12.219Z,100844.74
2019-02-05T08:16:43.046Z,100846.34
2019-02-05T08:19:13.496Z,100846.81
2019-02-05T08:21:43.976Z,100853.66
2019-02-05T08:24:14.426Z,100855.28
2019-02-05T08:26:44.966Z,100856.17
2019-02-05T08:29:21.715Z,100861.58
2019-02-05T08:31:47.738Z,100856.63
2019-02-05T08:34:18.229Z,100874.98
2019-02-05T08:36:48.668Z,100871.69
2019-02-05T08:39:19.166Z,100874.15
2019-02-05T08:41:49.695Z,100877.33
2019-02-05T08:44:20.167Z,100879.64
2019-02-05T08:46:50.646Z,100878.41
2019-02-05T08:49:22.326Z,100876.61
2019-02-05T08:51:52.834Z,100874.36
2019-02-05T08:54:23.292Z,100880.42
2019-02-05T08:56:53.899Z,100878.32
2019-02-05T08:59:25.070Z,100879.46
2019-02-05T09:01:56.223Z,100873.25
2019-02-05T09:04:26.719Z,100874.27
2019-02-05T09:06:57.898Z,100880.53
2019-02-05T09:09:28.346Z,100881.23
2019-02-05T09:11:58.826Z,100884.89
2019-02-05T09:14:29.590Z,100888.03
2019-02-05T09:17:00.430Z,100895.19
2019-02-05T09:19:31.270Z,100897.67
2019-02-05T09:22:01.908Z,100894.75
2019-02-05T09:24:32.390Z,100898.33
2019-02-05T09:27:03.763Z,100904.09
2019-02-05T09:29:34.530Z,100909.20
2019-02-05T09:32:05.520Z,100901.84
2019-02-05T09:34:35.970Z,100901.64
2019-02-05T09:37:06.462Z,100905.93
2019-02-05T09:39:37.086Z,100911.75
2019-02-05T09:42:07.854Z,100916.23
2019-02-05T09:44:38.307Z,100913.95
2019-02-05T09:47:08.753Z,100909.98
2019-02-05T09:49:39.598Z,100915.30
2019-02-05T09:52:10.148Z,100911.93
2019-02-05T09:54:40.644Z,100925.14
2019-02-05T09:57:11.366Z,100920.64
2019-02-05T09:59:45.488Z,100926.64
2019-02-05T10:02:14.618Z,100929.53
2019-02-05T10:04:45.059Z,100919.38
2019-02-05T10:07:15.575Z,100923.34
2019-02-05T10:09:46.029Z,100924.45
2019-02-05T10:12:16.894Z,100927.88
2019-02-05T10:14:47.674Z,100927.69
2019-02-05T10:17:18.129Z,100929.61
2019-02-05T10:19:48.609Z,100923.64
2019-02-05T10:22:19.069Z,100929.91
2019-02-05T10:24:50.105Z,100928.20
2019-02-05T10:27:21.267Z,100927.56
2019-02-05T10:29:57.889Z,100932.22
2019-02-05T10:32:23.927Z,100936.91
2019-02-05T10:34:54.426Z,100933.05
2019-02-05T10:37:24.951Z,100934.17
2019-02-05T10:39:56.352Z,100933.62
2019-02-05T10:42:27.654Z,100936.33
2019-02-05T10:44:58.153Z,100940.53
2019-02-05T10:47:28.619Z,100937.80
2019-02-05T10:49:59.227Z,100938.00
2019-02-05T10:52:30.012Z,100933.84
2019-02-05T10:55:01.069Z,100929.89
2019-02-05T10:57:31.614Z,100935.45
2019-02-05T11:00:09.126Z,100923.51
2019-02-05T11:02:34.278Z,100930.58
2019-02-05T11:05:05.846Z,100922.55
2019-02-05T11:07:36.639Z,100930.44
2019-02-05T11:10:08.911Z,100919.70
2019-02-05T11:12:39.412Z,100925.92
2019-02-05T11:15:12.708Z,100925.67
2019-02-05T11:17:43.225Z,100927.09
2019-02-05T11:20:16.339Z,100932.73
2019-02-05T11:22:47.818Z,100924.52
2019-02-05T11:25:18.633Z,100934.04
2019-02-05T11:27:49.712Z,100928.18
2019-02-05T11:30:26.370Z,100928.82
2019-02-05T11:32:57.108Z,100930.83
2019-02-05T11:35:27.882Z,100929.12
2019-02-05T11:37:58.355Z,100930.53
2019-02-05T11:40:31.975Z,100926.38
2019-02-05T11:43:02.644Z,100923.34
2019-02-05T11:45:33.577Z,100925.53
2019-02-05T11:48:05.171Z,100928.18
2019-02-05T11:50:36.027Z,100930.88
2019-02-05T11:53:06.623Z,100923.97
2019-02-05T11:55:37.259Z,100921.51
2019-02-05T11:58:07.997Z,100914.61
2019-02-05T12:00:56.483Z,100921.46
2019-02-05T12:03:27.011Z,100912.59
2019-02-05T12:05:57.503Z,100917.86
2019-02-05T12:08:28.002Z,100910.66
2019-02-05T12:10:58.466Z,100913.05
2019-02-05T12:13:29.072Z,100918.98
2019-02-05T12:15:59.566Z,100922.22
2019-02-05T12:18:30.444Z,100922.06
2019-02-05T12:21:00.982Z,100913.91
2019-02-05T12:23:32.818Z,100918.00
2019-02-05T12:26:03.340Z,100916.20
2019-02-05T12:28:34.618Z,100918.30
2019-02-05T12:31:05.487Z,100921.14
2019-02-05T12:33:36.273Z,100918.11
2019-02-05T12:36:07.244Z,100918.69
2019-02-05T12:38:38.472Z,100916.40
2019-02-05T12:41:08.918Z,100913.95
2019-02-05T12:43:39.375Z,100919.24
2019-02-05T12:46:10.779Z,100917.63
2019-02-05T12:48:41.455Z,100914.63
2019-02-05T12:51:12.131Z,100908.59
2019-02-05T12:53:43.039Z,100910.22
2019-02-05T12:56:13.575Z,100915.66
2019-02-05T12:58:44.487Z,100908.02
2019-02-05T13:01:14.943Z,100904.34
2019-02-05T13:03:45.491Z,100908.85
2019-02-05T13:06:15.938Z,100913.41
2019-02-05T13:08:46.431Z,100906.51
2019-02-05T13:11:16.920Z,100910.41
2019-02-05T13:13:47.599Z,100908.21
2019-02-05T13:16:18.395Z,100909.44
2019-02-05T13:18:51.817Z,100913.95
2019-02-05T13:21:21.398Z,100906.59
2019-02-05T13:23:51.979Z,100906.99
2019-02-05T13:26:22.450Z,100911.54
2019-02-05T13:28:53.418Z,100916.44
2019-02-05T13:31:24.316Z,100912.34
2019-02-05T13:33:54.784Z,100921.14
2019-02-05T13:36:25.282Z,100922.18
2019-02-05T13:38:55.742Z,100925.60
2019-02-05T13:41:29.018Z,100926.73
2019-02-05T13:43:59.184Z,100927.27
2019-02-05T13:46:29.638Z,100929.66
2019-02-05T13:49:00.122Z,100928.34
2019-02-05T13:51:30.688Z,100928.14
2019-02-05T13:54:01.267Z,100931.23
2019-02-05T13:56:31.722Z,100942.89
2019-02-05T13:59:02.179Z,100942.31
2019-02-05T14:01:32.992Z,100943.63
2019-02-05T14:04:03.538Z,100951.95
2019-02-05T14:06:34.977Z,100959.78
2019-02-05T14:09:11.036Z,100950.23
2019-02-05T14:11:41.906Z,100962.59
2019-02-05T14:14:12.664Z,100968.16
2019-02-05T14:16:43.442Z,100968.06
2019-02-05T14:19:14.444Z,100971.58
2019-02-05T14:21:46.293Z,100966.64
2019-02-05T14:24:16.784Z,100969.48
2019-02-05T14:26:47.624Z,100979.28
2019-02-05T14:29:18.510Z,100982.40
2019-02-05T14:31:49.301Z,100980.98
2019-02-05T14:34:19.808Z,100980.15
2019-02-05T14:36:50.290Z,100977.11
2019-02-05T14:39:20.842Z,100978.19
2019-02-05T14:41:52.100Z,100979.66
2019-02-05T14:44:22.575Z,100979.22
2019-02-05T14:46:53.468Z,100974.58
2019-02-05T14:49:23.913Z,100966.20
2019-02-05T14:51:54.363Z,100969.87
2019-02-05T14:54:25.231Z,100978.19
2019-02-05T14:56:55.680Z,100980.15
2019-02-05T14:59:26.562Z,100978.14
2019-02-05T15:01:57.020Z,100981.08
2019-02-05T15:04:27.863Z,100981.17
2019-02-05T15:06:58.326Z,100983.43
2019-02-05T15:09:28.854Z,100978.14
2019-02-05T15:11:59.651Z,100978.63
2019-02-05T15:14:30.094Z,100987.58
2019-02-05T15:17:00.565Z,100982.49
2019-02-05T15:19:31.412Z,100978.63
2019-02-05T15:22:01.874Z,100987.09
2019-02-05T15:24:37.953Z,100987.48
2019-02-05T15:27:04.616Z,100988.92
2019-02-05T15:29:35.115Z,100990.42
2019-02-05T15:32:05.954Z,100994.78
2019-02-05T15:34:36.407Z,100994.00
2019-02-05T15:37:07.870Z,100989.65
2019-02-05T15:39:38.711Z,100998.91
2019-02-05T15:42:09.201Z,100997.97
2019-02-05T15:44:39.647Z,100997.97
2019-02-05T15:47:10.151Z,101003.44
2019-02-05T15:49:41.007Z,101000.11
2019-02-05T15:52:11.630Z,101003.39
2019-02-05T15:54:42.113Z,101001.61
2019-02-05T15:57:12.567Z,101004.71
2019-02-05T15:59:43.068Z,101010.48
2019-02-05T16:02:13.618Z,101006.30
2019-02-05T16:04:44.069Z,101008.86
2019-02-05T16:07:15.324Z,101007.92
2019-02-05T16:09:45.783Z,101003.05
2019-02-05T16:12:16.429Z,101007.35
2019-02-05T16:14:46.879Z,101007.35
2019-02-05T16:17:17.335Z,101006.61
2019-02-05T16:19:47.810Z,101009.30
2019-02-05T16:22:19.059Z,101005.94
2019-02-05T16:24:49.538Z,101014.03
2019-02-05T16:27:20.011Z,101016.28
2019-02-05T16:29:50.851Z,101009.38
2019-02-05T16:32:21.998Z,101014.87
2019-02-05T16:34:53.143Z,101015.89
2019-02-05T16:37:23.628Z,101012.70
2019-02-05T16:39:54.078Z,101013.73
2019-02-05T16:42:24.891Z,101014.98
2019-02-05T16:44:55.339Z,101015.86
2019-02-05T16:47:25.816Z,101012.97
2019-02-05T16:49:56.303Z,101021.77
2019-02-05T16:52:26.812Z,101017.93
2019-02-05T16:54:57.268Z,101018.62
2019-02-05T16:57:28.310Z,101023.22
2019-02-05T16:59:58.783Z,101028.62
2019-02-05T17:02:29.649Z,101030.13
2019-02-05T17:05:00.264Z,101036.73
2019-02-05T17:07:30.766Z,101033.70
2019-02-05T17:10:01.251Z,101029.38
2019-02-05T17:12:31.725Z,101026.13
2019-02-05T17:15:03.044Z,101022.91
2019-02-05T17:17:33.601Z,101030.81
2019-02-05T17:20:05.951Z,101031.02
2019-02-05T17:22:36.857Z,101029.83
2019-02-05T17:25:07.924Z,101036.73
2019-02-05T17:27:38.732Z,101040.58
2019-02-05T17:30:12.756Z,101041.18
2019-02-05T17:32:43.361Z,101043.25
2019-02-05T17:35:14.085Z,101037.45
2019-02-05T17:37:44.747Z,101040.09
2019-02-05T17:40:17.339Z,101037.93
2019-02-05T17:42:48.494Z,101041.59
2019-02-05T17:45:21.695Z,101035.80
2019-02-05T17:47:52.173Z,101033.38
2019-02-05T17:50:23.221Z,101043.52
2019-02-05T17:52:53.672Z,101045.54
2019-02-05T17:55:24.603Z,101041.98
2019-02-05T17:57:55.058Z,101046.13
2019-02-05T18:00:30.165Z,101037.41
2019-02-05T18:03:01.061Z,101040.40
2019-02-05T18:05:34.815Z,101040.56
2019-02-05T18:08:04.014Z,101043.13
2019-02-05T18:10:34.475Z,101043.34
2019-02-05T18:13:05.284Z,101049.91
2019-02-05T18:15:36.102Z,101041.98
2019-02-05T18:18:06.944Z,101040.05
2019-02-05T18:20:37.792Z,101034.98
2019-02-05T18:23:08.899Z,101035.77
2019-02-05T18:25:39.418Z,101029.70
2019-02-05T18:28:10.713Z,101031.95
2019-02-05T18:30:41.578Z,101036.38
2019-02-05T18:33:12.407Z,101029.63
2019-02-05T18:35:44.712Z,101028.77
2019-02-05T18:38:16.153Z,101021.41
2019-02-05T18:40:47.075Z,101030.83
2019-02-05T18:43:17.580Z,101038.45
2019-02-05T18:45:48.059Z,101026.87
2019-02-05T18:48:18.877Z,101041.09
2019-02-05T18:50:49.630Z,101031.84
2019-02-05T18:53:21.165Z,101037.13
2019-02-05T18:55:53.773Z,101036.83
2019-02-05T18:58:27.927Z,101035.27
2019-02-05T19:00:59.107Z,101027.67
2019-02-05T19:03:30.151Z,101029.59
2019-02-05T19:06:01.011Z,101036.59
2019-02-05T19:08:31.771Z,101036.03
2019-02-05T19:11:02.232Z,101039.67
2019-02-05T19:13:32.904Z,101031.83
2019-02-05T19:16:07.082Z,101025.63
2019-02-05T19:18:38.769Z,101037.40
2019-02-05T19:21:12.198Z,101037.09
2019-02-05T19:23:43.132Z,101042.83
2019-02-05T19:26:19.995Z,101045.38
2019-02-05T19:28:50.822Z,101034.49
2019-02-05T19:31:38.867Z,101028.19
2019-02-05T19:34:11.445Z,101018.45
2019-02-05T19:36:41.940Z,101034.41
2019-02-05T19:39:14.526Z,101023.53
2019-02-05T19:41:45.312Z,101027.67
2019-02-05T19:44:16.183Z,101029.92
2019-02-05T19:47:15.208Z,101029.77
2019-02-05T19:49:50.951Z,101025.24
2019-02-05T19:52:27.712Z,101032.42
2019-02-05T19:54:58.054Z,101033.73
2019-02-05T19:57:29.750Z,101030.70
2019-02-05T20:00:01.167Z,101036.92
2019-02-05T20:02:32.249Z,101043.52
2019-02-05T20:05:02.702Z,101038.84
2019-02-05T20:07:36.317Z,101041.58
2019-02-05T20:10:09.260Z,101031.01
2019-02-05T20:12:40.130Z,101031.01
2019-02-05T20:15:10.603Z,101033.47
2019-02-05T20:17:41.925Z,101025.45
2019-02-05T20:20:14.101Z,101041.09
2019-02-05T20:22:44.906Z,101035.33
2019-02-05T20:25:15.483Z,101035.42
2019-02-05T20:27:46.730Z,101033.34
2019-02-05T20:30:18.012Z,101037.40
2019-02-05T20:32:48.543Z,101036.52
2019-02-05T20:35:19.368Z,101039.56
2019-02-05T20:37:50.327Z,101045.02
2019-02-05T20:40:20.868Z,101044.14
2019-02-05T20:42:51.734Z,101036.31
2019-02-05T20:45:22.278Z,101047.27
2019-02-05T20:47:55.796Z,101046.34
2019-02-05T20:50:25.489Z,101047.31
2019-02-05T20:52:56.813Z,101045.98
2019-02-05T20:55:29.614Z,101043.22
2019-02-05T20:58:00.062Z,101044.23
2019-02-05T21:00:30.642Z,101050.00
2019-02-05T21:03:01.228Z,101041.81
2019-02-05T21:05:31.768Z,101049.43
2019-02-05T21:08:02.829Z,101049.91
2019-02-05T21:10:34.328Z,101048.59
2019-02-05T21:13:05.244Z,101050.45
2019-02-05T21:15:36.082Z,101057.36
2019-02-05T21:18:07.207Z,101060.48
2019-02-05T21:20:37.689Z,101059.61
2019-02-05T21:23:08.307Z,101062.02
2019-02-05T21:25:38.886Z,101063.73
2019-02-05T21:28:09.454Z,101062.80
2019-02-05T21:30:39.944Z,101060.70
2019-02-05T21:33:10.472Z,101060.39
2019-02-05T21:35:41.198Z,101060.08
2019-02-05T21:38:11.888Z,101057.92
2019-02-05T21:40:42.341Z,101062.33
2019-02-05T21:43:12.826Z,101058.77
2019-02-05T21:45:43.777Z,101061.97
2019-02-05T21:48:14.427Z,101057.05
2019-02-05T21:50:45.650Z,101044.71
2019-02-05T21:53:16.448Z,101048.02
2019-02-05T21:55:47.233Z,101038.77
2019-02-05T21:58:17.687Z,101043.73
2019-02-05T22:00:48.171Z,101043.91
2019-02-05T22:03:18.723Z,101037.45
2019-02-05T22:05:49.269Z,101032.95
2019-02-05T22:08:19.797Z,101034.09
2019-02-05T22:10:50.278Z,101026.06
2019-02-05T22:13:22.416Z,101027.65
2019-02-05T22:15:52.870Z,101026.55
2019-02-05T22:18:23.374Z,101020.34
2019-02-05T22:20:54.191Z,101021.45
2019-02-05T22:23:25.021Z,101024.63
2019-02-05T22:25:55.604Z,101017.19
2019-02-05T22:28:26.014Z,101016.63
2019-02-05T22:30:56.893Z,101023.53
2019-02-05T22:33:28.211Z,101030.01
2019-02-05T22:35:59.086Z,101026.66
2019-02-05T22:38:29.537Z,101023.17
2019-02-05T22:40:59.994Z,101031.63
2019-02-05T22:43:30.474Z,101030.48
2019-02-05T22:46:01.199Z,101039.73
2019-02-05T22:48:32.434Z,101033.80
2019-02-05T22:51:02.969Z,101032.87
2019-02-05T22:53:33.519Z,101032.73
2019-02-05T22:56:04.101Z,101034.23
2019-02-05T22:58:34.549Z,101027.58
2019-02-05T23:01:23.358Z,101025.11
2019-02-05T23:04:05.875Z,101022.08
2019-02-05T23:07:10.179Z,101013.37
2019-02-05T23:09:46.083Z,101012.36
2019-02-05T23:12:32.679Z,101015.56
2019-02-05T23:15:24.248Z,101017.99
2019-02-05T23:17:54.852Z,101016.97
2019-02-05T23:20:25.821Z,101013.14
2019-02-05T23:22:57.197Z,101015.66
2019-02-05T23:25:27.836Z,101015.80
2019-02-05T23:27:58.386Z,101011.31
2019-02-05T23:30:30.638Z,101007.52
2019-02-05T23:33:01.130Z,101007.05
2019-02-05T23:35:33.323Z,101012.24
2019-02-05T23:38:04.172Z,101016.20
2019-02-05T23:40:34.792Z,101012.02
2019-02-05T23:43:05.800Z,101002.86
2019-02-05T23:45:36.673Z,101006.74
2019-02-05T23:48:08.031Z,100995.03
2019-02-05T23:50:38.474Z,100993.32
2019-02-05T23:53:09.291Z,101000.55
2019-02-05T23:55:39.766Z,101000.89
2019-02-05T23:58:10.682Z,100998.25
